Orbital elements of CZ-4B DEB
| Launched | 20 October 2003 |
| Flight ended | – |
| Launch site | Taiyuan Space Center, PRC |
| Owner | People's Republic of China |
| NORAD ID | 31131 |
| Date fetched |
Epoch osculation |
Inc. [°] |
Ecc. | RA asc node [hr] |
Arg Peri. [°] |
Mean anom [°] |
Mean motion [rev/day] |
Abs. mag |
| Date fetched |
Epoch osculation |
Inc. [°] |
Ecc. | RA asc node [hr] |
Arg Peri. [°] |
Mean anom [°] |
Mean motion [rev/day] |
Abs. mag |
| 2026 May 03 17:57 | 2026 Apr 30 07:39:34 | 98.8444 | 0.01192 | 10.1690 | 217.0104 | 204.8859 | 14.38678 | – |
| 2026 May 02 17:57 | 2026 Apr 30 07:39:34 | 98.8444 | 0.01192 | 10.1690 | 217.0104 | 204.8859 | 14.38678 | – |
| 2026 May 01 17:56 | 2026 Apr 30 07:39:34 | 98.8444 | 0.01192 | 10.1690 | 217.0104 | 204.8859 | 14.38678 | – |
| 2026 Apr 30 17:56 | 2026 Apr 30 07:39:34 | 98.8444 | 0.01192 | 10.1690 | 217.0104 | 204.8859 | 14.38678 | – |
| 2026 Apr 29 17:57 | 2026 Apr 24 01:16:53 | 98.8453 | 0.01188 | 9.7384 | 235.6626 | 204.8859 | 14.38678 | – |
| 2026 Apr 28 17:56 | 2026 Apr 24 01:16:53 | 98.8453 | 0.01188 | 9.7384 | 235.6626 | 204.8859 | 14.38678 | – |
| 2026 Apr 27 17:58 | 2026 Apr 24 01:16:53 | 98.8453 | 0.01188 | 9.7384 | 235.6626 | 204.8859 | 14.38678 | – |
| 2026 Apr 26 17:58 | 2026 Apr 24 01:16:53 | 98.8453 | 0.01188 | 9.7384 | 235.6626 | 204.8859 | 14.38678 | – |
| 2026 Apr 25 17:58 | 2026 Apr 24 01:16:53 | 98.8453 | 0.01188 | 9.7384 | 235.6626 | 204.8859 | 14.38678 | – |
| 2026 Apr 24 17:59 | 2026 Apr 24 01:16:53 | 98.8453 | 0.01188 | 9.7384 | 235.6626 | 204.8859 | 14.38678 | – |
| 2026 Apr 23 17:57 | 2026 Apr 19 07:56:25 | 98.8460 | 0.01186 | 9.4138 | 249.7541 | 204.8859 | 14.38678 | – |
| 2026 Apr 22 17:57 | 2026 Apr 19 07:56:25 | 98.8460 | 0.01186 | 9.4138 | 249.7541 | 204.8859 | 14.38678 | – |
| 2026 Apr 21 17:57 | 2026 Apr 19 07:56:25 | 98.8460 | 0.01186 | 9.4138 | 249.7541 | 204.8859 | 14.38678 | – |
| 2026 Apr 20 17:57 | 2026 Apr 19 07:56:25 | 98.8460 | 0.01186 | 9.4138 | 249.7541 | 204.8859 | 14.38678 | – |
| 2026 Apr 19 17:58 | 2026 Apr 19 07:56:25 | 98.8460 | 0.01186 | 9.4138 | 249.7541 | 204.8859 | 14.38678 | – |
| 2026 Apr 18 17:56 | 2026 Apr 12 00:30:42 | 98.8468 | 0.01185 | 8.9114 | 271.6278 | 204.8859 | 14.38678 | – |
| 2026 Apr 16 17:57 | 2026 Apr 12 00:30:42 | 98.8468 | 0.01185 | 8.9114 | 271.6278 | 204.8859 | 14.38678 | – |
| 2026 Apr 14 17:57 | 2026 Apr 12 00:30:42 | 98.8468 | 0.01185 | 8.9114 | 271.6278 | 204.8859 | 14.38678 | – |
| 2026 Apr 13 17:57 | 2026 Apr 12 00:30:42 | 98.8468 | 0.01185 | 8.9114 | 271.6278 | 204.8859 | 14.38678 | – |
| 2026 Apr 12 17:57 | 2026 Apr 08 13:37:44 | 98.8478 | 0.01184 | 8.6740 | 281.9673 | 204.8859 | 14.38678 | – |
| 2026 Apr 11 17:57 | 2026 Apr 08 13:37:44 | 98.8478 | 0.01184 | 8.6740 | 281.9673 | 204.8859 | 14.38678 | – |
| 2026 Apr 10 17:58 | 2026 Apr 08 13:37:44 | 98.8478 | 0.01184 | 8.6740 | 281.9673 | 204.8859 | 14.38678 | – |
| 2026 Apr 09 18:01 | 2026 Apr 08 13:37:44 | 98.8478 | 0.01184 | 8.6740 | 281.9673 | 204.8859 | 14.38678 | – |
| 2026 Apr 08 17:57 | 2026 Apr 08 13:37:44 | 98.8478 | 0.01184 | 8.6740 | 281.9673 | 204.8859 | 14.38678 | – |
| 2026 Apr 07 17:57 | 2026 Apr 02 08:25:42 | 98.8490 | 0.01186 | 8.2467 | 300.5517 | 204.8859 | 14.38678 | – |
| 2026 Apr 06 17:57 | 2026 Apr 02 08:25:42 | 98.8490 | 0.01186 | 8.2467 | 300.5517 | 204.8859 | 14.38678 | – |